Time;durP1;ratioP1;P1;durP2;ratioP2;P2;SDS_P1;SDS_P2;PMS_P1;PMS_P2;Temp;Humidity;BMP_temperature;BMP_pressure;BME280_temperature;BME280_humidity;BME280_pressure;Samples;Min_cycle;Max_cycle;Signal;HPM_P1;HPM_P2
2022/09/12 00:00:49;;;;;;;13.70;9.30;;;16.60;99.90;;;;;;5037100;28;20068;-59
2022/09/12 00:03:16;;;;;;;11.23;8.80;;;16.70;99.90;;;;;;5036759;28;20073;-58
2022/09/12 00:05:43;;;;;;;23.10;10.02;;;16.70;99.90;;;;;;5036934;28;20064;-59
2022/09/12 00:08:10;;;;;;;15.38;9.55;;;16.60;99.90;;;;;;5036293;28;20041;-58
2022/09/12 00:10:38;;;;;;;15.10;9.20;;;16.60;99.90;;;;;;5037190;28;20080;-57
2022/09/12 00:13:05;;;;;;;16.58;9.55;;;16.60;99.90;;;;;;5036430;28;20081;-58
2022/09/12 00:15:37;;;;;;;11.90;8.57;;;16.60;99.90;;;;;;5038200;28;20093;-58
2022/09/12 00:18:04;;;;;;;12.13;8.40;;;16.60;99.90;;;;;;5037954;28;20057;-58
2022/09/12 00:20:31;;;;;;;13.63;9.07;;;16.60;99.90;;;;;;5038037;28;20049;-58
2022/09/12 00:22:58;;;;;;;12.82;8.50;;;16.60;99.90;;;;;;5053538;28;20076;-59
2022/09/12 00:25:25;;;;;;;13.15;9.65;;;16.60;99.90;;;;;;5037209;28;20074;-59
2022/09/12 00:27:51;;;;;;;10.93;7.82;;;16.60;99.90;;;;;;5036390;28;20094;-58
2022/09/12 00:30:18;;;;;;;11.70;8.18;;;16.60;99.90;;;;;;4687715;28;10000206;-58
2022/09/12 00:32:45;;;;;;;16.77;8.65;;;16.60;99.90;;;;;;5036580;28;20101;-58
2022/09/12 00:35:12;;;;;;;10.80;8.35;;;16.60;99.90;;;;;;5037047;28;20049;-59
2022/09/12 00:37:38;;;;;;;12.25;9.15;;;16.60;99.90;;;;;;5036481;28;20102;-58
2022/09/12 00:40:06;;;;;;;10.68;8.43;;;16.60;99.90;;;;;;5037404;28;20465;-59
2022/09/12 00:42:33;;;;;;;10.38;8.82;;;16.60;99.90;;;;;;5037859;28;20045;-58
2022/09/12 00:44:59;;;;;;;15.32;8.45;;;16.50;99.90;;;;;;5037321;28;20094;-60
2022/09/12 00:47:27;;;;;;;12.77;8.13;;;16.50;99.90;;;;;;5020921;28;20069;-58
2022/09/12 00:50:11;;;;;;;12.07;7.82;;;16.50;99.90;;;;;;5037132;28;20105;-58
2022/09/12 00:52:52;;;;;;;17.25;8.70;;;16.50;99.90;;;;;;5020583;28;20141;-58
2022/09/12 00:55:25;;;;;;;14.57;9.63;;;16.60;99.90;;;;;;5036118;28;20034;-58
2022/09/12 00:57:54;;;;;;;14.57;9.77;;;16.60;99.90;;;;;;5020610;28;20068;-58
2022/09/12 01:00:24;;;;;;;15.35;10.52;;;16.80;99.90;;;;;;5037117;28;20030;-59
2022/09/12 01:03:05;;;;;;;16.38;10.73;;;16.90;99.90;;;;;;5020451;28;20088;-58
2022/09/12 01:05:34;;;;;;;16.60;10.65;;;16.90;99.90;;;;;;5052798;28;20078;-58
2022/09/12 01:08:02;;;;;;;12.40;10.73;;;17.00;99.90;;;;;;4983051;28;20106;-58
2022/09/12 01:10:28;;;;;;;14.38;10.95;;;17.00;99.90;;;;;;5013365;28;20054;-59
2022/09/12 01:12:55;;;;;;;17.27;11.65;;;17.10;99.90;;;;;;5016804;28;20105;-58
2022/09/12 01:15:22;;;;;;;14.52;11.15;;;17.20;99.90;;;;;;5016907;28;20049;-58
2022/09/12 01:18:07;;;;;;;13.68;10.77;;;17.30;99.90;;;;;;5016593;28;20048;-58
2022/09/12 01:20:40;;;;;;;13.93;10.32;;;17.30;99.90;;;;;;5017415;28;20062;-59
2022/09/12 01:23:30;;;;;;;15.57;10.38;;;17.40;99.90;;;;;;5006806;28;20061;-58
2022/09/12 01:26:02;;;;;;;13.98;9.57;;;17.40;99.90;;;;;;5017129;28;20109;-56
2022/09/12 01:28:56;;;;;;;14.60;9.73;;;17.40;99.90;;;;;;5016726;28;20049;-58
2022/09/12 01:31:49;;;;;;;11.77;9.32;;;17.50;99.90;;;;;;5017182;28;20061;-58
2022/09/12 01:34:27;;;;;;;10.95;8.77;;;17.50;99.90;;;;;;5016315;28;20114;-58
2022/09/12 01:37:15;;;;;;;13.18;7.97;;;17.50;99.90;;;;;;5015964;28;20049;-58
2022/09/12 01:39:51;;;;;;;11.05;7.82;;;17.50;99.90;;;;;;5016931;28;20110;-58
2022/09/12 01:42:33;;;;;;;11.50;7.65;;;17.50;99.90;;;;;;5016743;28;20314;-58
2022/09/12 01:45:07;;;;;;;14.30;7.15;;;17.50;99.90;;;;;;5016367;28;20418;-58
2022/09/12 01:47:40;;;;;;;;;;;17.50;99.90;;;;;;5016583;28;20073;-57
2022/09/12 01:50:15;;;;;;;14.88;6.60;;;17.50;99.90;;;;;;5016730;28;19986;-58
2022/09/12 01:52:48;;;;;;;12.80;7.50;;;17.60;99.90;;;;;;5016519;28;20098;-58
2022/09/12 01:55:24;;;;;;;13.23;7.25;;;17.60;99.90;;;;;;5016235;28;20057;-60
2022/09/12 01:57:53;;;;;;;7.68;6.50;;;17.60;99.90;;;;;;5015671;28;20042;-58
2022/09/12 02:00:19;;;;;;;11.00;7.28;;;17.70;99.90;;;;;;5016555;28;20105;-59
2022/09/12 02:03:01;;;;;;;10.02;6.57;;;17.70;99.90;;;;;;5016211;28;20050;-59
2022/09/12 02:05:33;;;;;;;10.63;6.28;;;17.70;99.90;;;;;;5015786;28;20074;-59
2022/09/12 02:08:05;;;;;;;7.53;5.80;;;17.80;99.90;;;;;;5015696;28;20086;-58
2022/09/12 02:10:42;;;;;;;10.88;5.90;;;17.80;99.90;;;;;;5015603;28;20069;-59
2022/09/12 02:13:33;;;;;;;8.27;5.82;;;17.90;99.90;;;;;;5000623;28;20043;-58
2022/09/12 02:16:14;;;;;;;10.18;5.65;;;17.90;99.90;;;;;;5015847;28;20031;-59
2022/09/12 02:18:45;;;;;;;12.55;5.28;;;17.90;99.90;;;;;;5015812;28;20046;-61
2022/09/12 02:21:12;;;;;;;11.63;6.32;;;17.90;99.90;;;;;;5015784;28;20046;-58
2022/09/12 02:23:42;;;;;;;6.90;5.20;;;17.90;99.90;;;;;;5015090;28;20097;-59
2022/09/12 02:26:23;;;;;;;7.88;5.13;;;18.00;99.90;;;;;;5029085;28;20584;-59
2022/09/12 02:28:50;;;;;;;9.30;4.47;;;18.00;99.90;;;;;;5021951;28;20130;-58
2022/09/12 02:31:24;;;;;;;7.15;4.32;;;18.00;99.90;;;;;;5031031;28;20038;-55
2022/09/12 02:34:31;;;;;;;8.50;4.55;;;18.00;99.90;;;;;;5015461;28;20081;-59
2022/09/12 02:37:16;;;;;;;8.13;5.15;;;18.00;99.90;;;;;;4996477;28;20069;-58
2022/09/12 02:39:43;;;;;;;6.05;4.53;;;18.00;99.90;;;;;;5013583;28;20102;-57
2022/09/12 02:42:11;;;;;;;6.07;4.75;;;18.00;99.90;;;;;;5016053;28;20078;-59
2022/09/12 02:44:38;;;;;;;6.45;4.88;;;18.00;99.90;;;;;;5016262;28;20045;-57
2022/09/12 02:47:10;;;;;;;8.60;5.20;;;18.00;99.90;;;;;;5032240;28;20133;-59
2022/09/12 02:49:37;;;;;;;11.13;5.05;;;18.00;99.90;;;;;;5015729;28;20129;-58
2022/09/12 02:52:04;;;;;;;7.35;4.53;;;18.00;99.90;;;;;;5031678;28;20109;-58
2022/09/12 02:54:30;;;;;;;7.45;4.05;;;18.00;99.90;;;;;;5024244;28;20035;-58
2022/09/12 02:56:57;;;;;;;8.02;4.70;;;17.90;99.90;;;;;;5015721;28;20090;-59
2022/09/12 02:59:24;;;;;;;8.73;4.95;;;17.90;99.90;;;;;;5016032;28;20030;-59
2022/09/12 03:02:26;;;;;;;11.90;5.38;;;17.90;99.90;;;;;;5017733;28;20113;-58
2022/09/12 03:05:03;;;;;;;7.63;5.45;;;17.90;99.90;;;;;;5020531;28;20082;-59
2022/09/12 03:07:42;;;;;;;9.10;4.85;;;17.80;99.90;;;;;;5024362;28;20076;-58
2022/09/12 03:10:47;;;;;;;9.80;4.53;;;17.80;99.90;;;;;;5038385;28;20109;-58
2022/09/12 03:13:17;;;;;;;8.75;3.80;;;17.80;99.90;;;;;;5033695;28;20057;-60
2022/09/12 03:16:21;;;;;;;10.55;4.20;;;17.80;99.90;;;;;;5039424;28;20101;-59
2022/09/12 03:18:59;;;;;;;13.70;5.53;;;17.80;99.90;;;;;;5003059;28;20106;-59
2022/09/12 03:21:53;;;;;;;9.63;4.15;;;17.80;99.90;;;;;;5025387;28;20105;-58
2022/09/12 03:24:22;;;;;;;5.22;3.35;;;17.80;99.90;;;;;;5024636;28;20081;-58
2022/09/12 03:26:58;;;;;;;7.95;4.05;;;17.70;99.90;;;;;;5022312;28;20083;-58
2022/09/12 03:29:25;;;;;;;7.07;3.97;;;17.70;99.90;;;;;;5022076;28;20098;-58
2022/09/12 03:31:53;;;;;;;4.82;3.30;;;17.80;99.90;;;;;;5055006;28;20018;-59
2022/09/12 03:34:21;;;;;;;9.55;3.60;;;17.70;99.90;;;;;;5022658;28;20094;-58
2022/09/12 03:36:48;;;;;;;6.50;3.88;;;17.70;99.90;;;;;;5038778;28;20026;-58
2022/09/12 03:39:15;;;;;;;8.25;3.78;;;17.70;99.90;;;;;;5038867;28;20057;-59
2022/09/12 03:41:41;;;;;;;5.70;3.55;;;17.60;99.90;;;;;;5038755;28;20085;-58
2022/09/12 03:44:08;;;;;;;5.30;3.53;;;17.60;99.90;;;;;;5038464;28;20105;-58
2022/09/12 03:46:35;;;;;;;11.25;4.03;;;17.60;99.90;;;;;;5038703;28;20053;-59
2022/09/12 03:49:02;;;;;;;5.78;3.50;;;17.60;99.90;;;;;;5038799;28;20118;-58
2022/09/12 03:51:29;;;;;;;5.05;3.22;;;17.60;99.90;;;;;;5038755;28;20049;-56
2022/09/12 03:53:56;;;;;;;6.75;3.65;;;17.60;99.90;;;;;;5038747;28;20201;-58
2022/09/12 03:56:23;;;;;;;8.90;3.85;;;17.50;99.90;;;;;;5038340;28;20038;-58
2022/09/12 03:58:50;;;;;;;8.65;4.28;;;17.50;99.90;;;;;;5038541;28;20038;-58
2022/09/12 04:01:17;;;;;;;5.50;3.55;;;17.50;99.90;;;;;;5021830;28;20105;-57
2022/09/12 04:03:46;;;;;;;4.18;3.63;;;17.50;99.90;;;;;;5036473;28;20101;-58
2022/09/12 04:06:14;;;;;;;7.28;4.32;;;17.50;99.90;;;;;;5038056;28;20105;-59
2022/09/12 04:08:42;;;;;;;8.57;3.88;;;17.50;99.90;;;;;;5021378;28;20045;-58
2022/09/12 04:11:11;;;;;;;8.90;3.50;;;17.50;99.90;;;;;;5021238;28;20031;-58
2022/09/12 04:13:38;;;;;;;7.40;4.05;;;17.50;99.90;;;;;;5037513;28;20026;-59
2022/09/12 04:16:06;;;;;;;7.68;5.22;;;17.50;99.90;;;;;;5037807;28;20049;-58
2022/09/12 04:18:33;;;;;;;10.95;4.20;;;17.50;99.90;;;;;;5053706;28;20062;-58
2022/09/12 04:21:07;;;;;;;5.47;4.18;;;17.50;99.90;;;;;;5038192;28;20064;-59
2022/09/12 04:23:34;;;;;;;5.65;3.50;;;17.50;99.90;;;;;;5037268;28;20088;-59
2022/09/12 04:26:02;;;;;;;6.90;4.18;;;17.40;99.90;;;;;;5021599;28;20036;-57
2022/09/12 04:28:29;;;;;;;11.65;4.90;;;17.40;99.90;;;;;;5021215;28;20036;-59
2022/09/12 04:30:57;;;;;;;6.78;4.65;;;17.50;99.90;;;;;;5005122;28;20032;-58
2022/09/12 04:33:24;;;;;;;6.07;3.80;;;17.40;99.90;;;;;;5020687;28;20097;-59
2022/09/12 04:35:50;;;;;;;7.90;4.63;;;17.40;99.90;;;;;;5038002;28;20073;-58
2022/09/12 04:38:17;;;;;;;6.43;4.45;;;17.50;99.90;;;;;;5037844;28;20630;-58
2022/09/12 04:40:44;;;;;;;6.80;4.45;;;17.40;99.90;;;;;;5037805;28;20105;-58
2022/09/12 04:43:11;;;;;;;10.63;3.72;;;17.40;99.90;;;;;;5037657;28;20030;-58
2022/09/12 04:45:40;;;;;;;10.00;3.85;;;17.40;99.90;;;;;;5038006;28;20034;-58
2022/09/12 04:48:07;;;;;;;5.15;3.90;;;17.40;99.90;;;;;;5037490;28;20072;-55
2022/09/12 04:50:33;;;;;;;5.20;3.92;;;17.40;99.90;;;;;;5037669;28;20037;-57
2022/09/12 04:53:00;;;;;;;8.70;4.35;;;17.40;99.90;;;;;;5040512;28;20056;-58
2022/09/12 04:55:27;;;;;;;8.13;4.47;;;17.40;99.90;;;;;;5020580;28;20073;-58
2022/09/12 04:57:54;;;;;;;6.57;3.72;;;17.30;99.90;;;;;;5037716;28;20026;-58
2022/09/12 05:00:21;;;;;;;7.40;3.40;;;17.40;99.90;;;;;;5037419;28;20034;-58
2022/09/12 05:02:48;;;;;;;11.98;3.92;;;17.30;99.90;;;;;;5037288;28;20034;-59
2022/09/12 05:05:16;;;;;;;6.97;4.20;;;17.30;99.90;;;;;;5053150;28;20114;-58
2022/09/12 05:07:43;;;;;;;6.25;3.80;;;17.40;99.90;;;;;;5037164;28;20064;-58
2022/09/12 05:10:11;;;;;;;9.10;4.18;;;17.30;99.90;;;;;;5036844;28;20054;-59
2022/09/12 05:12:39;;;;;;;6.30;3.72;;;17.40;99.90;;;;;;5037270;28;20034;-57
2022/09/12 05:15:06;;;;;;;5.03;3.40;;;17.40;99.90;;;;;;5037026;28;20144;-59
2022/09/12 05:17:33;;;;;;;10.40;3.88;;;17.40;99.90;;;;;;5037364;28;20050;-59
2022/09/12 05:20:00;;;;;;;5.32;3.45;;;17.40;99.90;;;;;;5036697;28;20113;-58
2022/09/12 05:22:27;;;;;;;8.82;3.47;;;17.40;99.90;;;;;;5037036;28;20077;-58
2022/09/12 05:24:54;;;;;;;17.30;4.30;;;17.40;99.90;;;;;;4705308;28;9999717;-59
2022/09/12 05:27:21;;;;;;;6.75;3.72;;;17.40;99.90;;;;;;5018856;28;20073;-58
2022/09/12 05:29:47;;;;;;;6.55;4.85;;;17.40;99.90;;;;;;5034351;28;20041;-59
2022/09/12 05:32:14;;;;;;;6.28;3.60;;;17.40;99.90;;;;;;5014862;28;20050;-58
2022/09/12 05:34:44;;;;;;;8.20;4.28;;;17.40;99.90;;;;;;5017573;28;20022;-59
2022/09/12 05:37:11;;;;;;;7.07;4.38;;;17.40;99.90;;;;;;5017035;28;20057;-58
2022/09/12 05:39:38;;;;;;;5.43;3.13;;;17.40;99.90;;;;;;5016922;28;20033;-58
2022/09/12 05:42:05;;;;;;;10.75;3.70;;;17.40;99.90;;;;;;5034331;28;20034;-58
2022/09/12 05:44:32;;;;;;;7.60;3.63;;;17.50;99.90;;;;;;5017388;28;20050;-58
2022/09/12 05:46:58;;;;;;;9.40;3.55;;;17.40;99.90;;;;;;5034411;28;20072;-59
2022/09/12 05:49:25;;;;;;;4.72;3.28;;;17.50;99.90;;;;;;5035103;28;20093;-58
2022/09/12 05:51:52;;;;;;;6.72;3.50;;;17.50;99.90;;;;;;5035034;28;20064;-59
2022/09/12 05:54:20;;;;;;;8.45;3.35;;;17.50;99.90;;;;;;5035478;28;20177;-59
2022/09/12 05:56:47;;;;;;;6.60;3.50;;;17.50;99.90;;;;;;5032161;28;20038;-60
2022/09/12 05:59:16;;;;;;;14.18;4.05;;;17.50;99.90;;;;;;5036504;28;20049;-59
2022/09/12 06:01:44;;;;;;;8.43;3.65;;;17.50;99.90;;;;;;5051381;28;20026;-60
2022/09/12 06:04:11;;;;;;;4.65;3.00;;;17.50;99.90;;;;;;5049298;28;20053;-59
2022/09/12 06:06:40;;;;;;;8.23;3.70;;;17.60;99.90;;;;;;5036502;28;20057;-59
2022/09/12 06:09:07;;;;;;;10.80;3.20;;;17.60;99.90;;;;;;5049906;28;20045;-59
2022/09/12 06:11:36;;;;;;;4.65;2.70;;;17.60;99.90;;;;;;5018772;28;20046;-59
2022/09/12 06:14:03;;;;;;;14.75;3.03;;;17.70;99.90;;;;;;5018698;28;20057;-58
2022/09/12 06:16:30;;;;;;;9.02;3.88;;;17.70;99.90;;;;;;5035581;28;20061;-57
2022/09/12 06:19:00;;;;;;;3.78;2.30;;;17.80;99.90;;;;;;5035261;28;20049;-59
2022/09/12 06:21:27;;;;;;;7.88;2.85;;;17.80;99.90;;;;;;5035412;28;20042;-58
2022/09/12 06:23:54;;;;;;;8.30;3.05;;;17.80;99.90;;;;;;5018639;28;20097;-59
2022/09/12 06:26:22;;;;;;;4.05;2.47;;;17.80;99.90;;;;;;5036893;28;20034;-59
2022/09/12 06:28:50;;;;;;;8.40;3.50;;;17.80;99.90;;;;;;5018165;28;20053;-60
2022/09/12 06:31:19;;;;;;;5.63;2.47;;;17.90;99.90;;;;;;5034556;28;20101;-59
2022/09/12 06:33:50;;;;;;;6.47;2.78;;;17.90;99.90;;;;;;5050711;28;20131;-59
2022/09/12 06:36:22;;;;;;;4.93;2.25;;;18.00;99.90;;;;;;5018574;28;20061;-59
2022/09/12 06:38:56;;;;;;;6.80;2.58;;;18.00;99.90;;;;;;5039369;28;20061;-59
2022/09/12 06:41:24;;;;;;;9.68;3.17;;;18.10;99.90;;;;;;5039098;28;20380;-59
2022/09/12 06:43:51;;;;;;;8.77;2.55;;;18.30;99.90;;;;;;5022743;28;20025;-58
2022/09/12 06:46:17;;;;;;;3.45;1.98;;;18.30;99.90;;;;;;5054564;28;20114;-60
2022/09/12 06:48:44;;;;;;;8.35;2.20;;;18.40;99.90;;;;;;5038545;28;20038;-60
2022/09/12 06:51:13;;;;;;;4.60;2.40;;;18.50;99.90;;;;;;5038524;28;20037;-61
2022/09/12 06:53:40;;;;;;;7.00;3.53;;;18.60;99.90;;;;;;5035293;28;20053;-60
2022/09/12 06:56:11;;;;;;;3.78;1.90;;;18.60;99.90;;;;;;5039266;28;20064;-59
2022/09/12 06:58:38;;;;;;;7.63;2.30;;;18.70;99.90;;;;;;5021575;28;20072;-56
2022/09/12 07:01:14;;;;;;;7.55;2.00;;;18.70;99.90;;;;;;5032472;28;20053;-58
2022/09/12 07:03:41;;;;;;;5.95;2.38;;;18.70;99.90;;;;;;5053337;28;20042;-58
2022/09/12 07:06:11;;;;;;;5.85;1.90;;;18.80;99.90;;;;;;5021679;28;20072;-60
2022/09/12 07:08:38;;;;;;;8.85;2.85;;;18.90;99.90;;;;;;5038363;28;20033;-61
2022/09/12 07:11:15;;;;;;;5.93;1.80;;;18.90;99.90;;;;;;5038914;28;20061;-60
2022/09/12 07:13:44;;;;;;;9.30;1.80;;;18.90;99.90;;;;;;5038958;28;20085;-60
2022/09/12 07:16:12;;;;;;;6.63;1.75;;;18.90;99.90;;;;;;5019046;28;20077;-60
2022/09/12 07:18:49;;;;;;;4.50;1.52;;;19.00;99.90;;;;;;5032774;28;20054;-59
2022/09/12 07:21:15;;;;;;;3.40;1.60;;;19.00;99.90;;;;;;5021585;28;20113;-59
2022/09/12 07:23:44;;;;;;;3.38;1.55;;;19.10;99.90;;;;;;5039718;28;20036;-59
2022/09/12 07:26:11;;;;;;;6.28;2.03;;;19.10;99.90;;;;;;5038701;28;20053;-60
2022/09/12 07:28:38;;;;;;;2.83;1.80;;;19.10;99.90;;;;;;5020680;28;20102;-60
2022/09/12 07:31:10;;;;;;;5.13;2.35;;;19.10;99.90;;;;;;5033127;28;20062;-60
2022/09/12 07:33:37;;;;;;;3.90;1.52;;;19.10;99.90;;;;;;5038353;28;20041;-60
2022/09/12 07:36:06;;;;;;;6.80;2.00;;;19.20;99.90;;;;;;5038006;28;20069;-60
2022/09/12 07:38:33;;;;;;;3.65;1.83;;;19.20;99.90;;;;;;5021150;28;20211;-62
2022/09/12 07:41:00;;;;;;;5.25;1.85;;;19.30;99.90;;;;;;5038128;28;20093;-60
2022/09/12 07:43:27;;;;;;;3.60;1.67;;;19.30;99.90;;;;;;5043499;28;20046;-59
2022/09/12 07:45:55;;;;;;;5.38;1.85;;;19.30;99.90;;;;;;5038256;28;20037;-61
2022/09/12 07:48:22;;;;;;;6.47;2.72;;;19.30;99.90;;;;;;4702186;28;9999952;-61
2022/09/12 07:50:59;;;;;;;11.00;2.22;;;19.30;99.90;;;;;;5018598;28;20022;-60
2022/09/12 07:53:29;;;;;;;9.02;2.00;;;19.30;99.90;;;;;;5010717;28;20092;-60
2022/09/12 07:55:56;;;;;;;3.92;1.63;;;19.40;99.90;;;;;;5036197;28;20045;-59
2022/09/12 07:58:23;;;;;;;6.05;2.05;;;19.40;99.90;;;;;;5036658;28;20042;-59
2022/09/12 08:00:50;;;;;;;4.80;1.92;;;19.40;99.90;;;;;;5017857;28;20043;-60
2022/09/12 08:03:17;;;;;;;13.50;2.38;;;19.50;99.90;;;;;;5045711;28;20069;-58
2022/09/12 08:05:44;;;;;;;4.80;1.60;;;19.50;99.90;;;;;;5030018;28;20030;-58
2022/09/12 08:08:11;;;;;;;3.88;1.55;;;19.60;99.90;;;;;;5019975;28;20057;-59
2022/09/12 08:10:38;;;;;;;8.18;2.05;;;19.70;99.90;;;;;;5031450;28;20118;-62
2022/09/12 08:13:05;;;;;;;10.90;2.65;;;19.80;99.90;;;;;;5034189;28;20116;-61
2022/09/12 08:15:33;;;;;;;6.82;2.28;;;19.90;99.90;;;;;;5035170;28;20054;-60
2022/09/12 08:18:00;;;;;;;7.30;2.58;;;19.90;99.90;;;;;;5036850;28;20065;-59
2022/09/12 08:20:27;;;;;;;3.03;1.75;;;20.00;99.90;;;;;;5037474;28;20103;-60
2022/09/12 08:22:54;;;;;;;4.75;1.80;;;20.10;99.90;;;;;;5021041;28;20049;-59
2022/09/12 08:25:20;;;;;;;4.65;1.60;;;20.10;99.90;;;;;;5035092;28;20053;-59
2022/09/12 08:27:48;;;;;;;4.10;1.55;;;20.10;99.90;;;;;;5031897;28;20065;-59
2022/09/12 08:30:14;;;;;;;6.93;1.60;;;20.10;99.90;;;;;;5037487;28;20050;-60
2022/09/12 08:32:41;;;;;;;9.77;2.53;;;20.10;99.90;;;;;;5037400;28;20202;-58
2022/09/12 08:35:08;;;;;;;3.75;1.35;;;20.20;99.90;;;;;;5037581;28;20025;-56
2022/09/12 08:37:35;;;;;;;2.63;1.17;;;20.20;99.90;;;;;;5037558;28;20037;-58
2022/09/12 08:40:05;;;;;;;2.92;1.60;;;20.20;99.90;;;;;;5037498;28;20037;-58
2022/09/12 08:42:51;;;;;;;3.35;1.20;;;20.30;99.90;;;;;;5037695;28;20025;-57
2022/09/12 08:45:41;;;;;;;6.30;1.08;;;20.40;99.90;;;;;;5021407;28;20061;-58
2022/09/12 08:48:08;;;;;;;1.80;1.02;;;20.50;99.90;;;;;;5017476;28;20050;-59
2022/09/12 08:50:35;;;;;;;2.20;1.38;;;20.60;99.90;;;;;;5035706;28;20038;-58
2022/09/12 08:53:11;;;;;;;5.85;1.33;;;20.60;99.90;;;;;;5036408;28;20026;-58
2022/09/12 08:55:52;;;;;;;7.55;2.47;;;20.70;99.90;;;;;;5033585;28;20046;-58
2022/09/12 08:58:21;;;;;;;3.65;1.25;;;20.80;99.90;;;;;;5026587;28;20053;-57
2022/09/12 09:01:00;;;;;;;8.18;1.75;;;20.90;99.90;;;;;;5019333;28;20064;-58
2022/09/12 09:03:33;;;;;;;5.18;1.38;;;21.00;99.90;;;;;;5027067;28;20061;-58
2022/09/12 09:06:31;;;;;;;1.93;1.30;;;21.00;99.90;;;;;;5029325;28;20026;-56
2022/09/12 09:09:12;;;;;;;2.97;1.65;;;21.10;99.90;;;;;;5028758;28;20085;-57
2022/09/12 09:11:48;;;;;;;8.20;1.60;;;21.10;99.90;;;;;;5037100;28;20098;-57
2022/09/12 09:14:47;;;;;;;3.90;1.40;;;21.30;99.90;;;;;;5037000;28;20089;-59
2022/09/12 09:17:28;;;;;;;4.00;1.55;;;21.40;99.90;;;;;;5029090;28;20060;-59
2022/09/12 09:20:21;;;;;;;5.00;1.42;;;21.70;99.90;;;;;;5036463;28;20040;-59
2022/09/12 09:23:19;;;;;;;5.43;1.52;;;22.20;99.90;;;;;;5036814;28;20105;-60
2022/09/12 09:26:16;;;;;;;5.35;1.30;;;22.40;99.90;;;;;;5017381;28;20023;-60
2022/09/12 09:29:05;;;;;;;4.93;1.20;;;22.60;99.90;;;;;;5035739;28;20037;-60
2022/09/12 09:31:40;;;;;;;4.45;1.67;;;22.60;99.90;;;;;;5035917;28;20097;-59
2022/09/12 09:34:19;;;;;;;4.70;2.05;;;22.60;99.90;;;;;;5033909;28;20081;-59
2022/09/12 09:37:00;;;;;;;6.63;1.20;;;22.60;99.90;;;;;;5036807;28;20097;-60
2022/09/12 09:39:56;;;;;;;4.03;1.02;;;22.60;99.90;;;;;;5036165;28;20030;-59
2022/09/12 09:42:46;;;;;;;4.60;1.40;;;22.60;99.90;;;;;;5036392;28;20034;-59
2022/09/12 09:45:15;;;;;;;5.35;1.58;;;22.60;99.90;;;;;;5025492;28;20058;-59
2022/09/12 09:47:53;;;;;;;4.88;1.98;;;22.60;99.90;;;;;;5022703;28;20061;-60
2022/09/12 09:50:20;;;;;;;6.00;1.95;;;22.60;99.90;;;;;;5016413;28;20057;-61
2022/09/12 09:52:48;;;;;;;13.93;2.50;;;22.50;99.90;;;;;;5019535;28;20089;-59
2022/09/12 09:55:17;;;;;;;4.28;1.80;;;22.50;99.90;;;;;;5036189;28;20044;-59
2022/09/12 09:57:45;;;;;;;6.75;1.70;;;22.50;99.90;;;;;;5020374;28;20050;-59
2022/09/12 10:00:34;;;;;;;6.03;1.77;;;22.40;99.90;;;;;;5036744;28;20045;-59
2022/09/12 10:03:13;;;;;;;2.92;1.58;;;22.30;99.90;;;;;;5035849;28;20037;-59
2022/09/12 10:05:50;;;;;;;12.02;2.05;;;22.30;99.90;;;;;;5027478;28;20097;-60
2022/09/12 10:08:31;;;;;;;6.50;1.50;;;22.30;99.90;;;;;;5035866;28;20069;-59
2022/09/12 10:11:11;;;;;;;12.25;2.05;;;22.20;99.90;;;;;;5038834;28;20053;-60
2022/09/12 10:13:43;;;;;;;4.32;1.60;;;22.30;99.90;;;;;;5042611;28;20037;-59
2022/09/12 10:16:18;;;;;;;3.40;1.27;;;22.40;99.90;;;;;;5035735;28;20101;-59
2022/09/12 10:18:45;;;;;;;12.15;2.17;;;22.50;99.90;;;;;;5041020;28;20037;-59
2022/09/12 10:21:32;;;;;;;6.53;2.08;;;22.50;99.90;;;;;;5041742;28;20038;-59
2022/09/12 10:23:59;;;;;;;3.65;2.30;;;22.60;99.90;;;;;;5028246;28;20053;-60
2022/09/12 10:26:25;;;;;;;7.38;2.33;;;22.70;99.90;;;;;;5042674;28;20030;-60
2022/09/12 10:28:53;;;;;;;7.07;2.72;;;22.80;99.90;;;;;;5042064;28;20060;-59
2022/09/12 10:31:28;;;;;;;4.93;2.50;;;22.90;99.90;;;;;;5026212;28;20030;-59
2022/09/12 10:33:57;;;;;;;13.43;2.65;;;22.90;99.90;;;;;;5041749;28;20097;-58
2022/09/12 10:36:25;;;;;;;7.90;2.25;;;23.00;99.90;;;;;;5048856;28;20093;-59
2022/09/12 10:38:56;;;;;;;7.47;2.13;;;23.10;99.90;;;;;;5059503;28;20061;-59
2022/09/12 10:41:23;;;;;;;5.68;2.20;;;23.20;99.90;;;;;;5041770;28;20267;-60
2022/09/12 10:43:50;;;;;;;6.45;1.95;;;23.30;99.90;;;;;;5042744;28;20053;-59
2022/09/12 10:46:16;;;;;;;4.00;1.73;;;23.40;99.90;;;;;;5041763;28;20097;-59
2022/09/12 10:48:47;;;;;;;6.18;2.75;;;23.40;99.90;;;;;;5042698;28;20045;-59
2022/09/12 10:51:23;;;;;;;4.80;1.75;;;23.50;99.90;;;;;;5042504;28;20030;-59
2022/09/12 10:53:51;;;;;;;5.72;2.00;;;23.60;99.90;;;;;;5042648;28;20077;-59
2022/09/12 10:56:23;;;;;;;6.53;2.08;;;23.80;99.90;;;;;;5041299;28;20049;-59
2022/09/12 10:58:55;;;;;;;9.05;2.47;;;23.90;99.90;;;;;;5025463;28;20076;-59
2022/09/12 11:01:32;;;;;;;5.10;2.27;;;23.90;99.90;;;;;;5042181;28;20058;-60
2022/09/12 11:04:08;;;;;;;4.78;2.08;;;24.00;99.90;;;;;;5042397;28;20271;-60
2022/09/12 11:06:57;;;;;;;7.85;2.90;;;24.00;99.90;;;;;;5024573;28;20057;-60
2022/09/12 11:09:30;;;;;;;5.47;2.55;;;24.00;99.90;;;;;;5025433;28;21033;-60
2022/09/12 11:12:07;;;;;;;3.08;1.67;;;24.00;99.90;;;;;;5041552;28;20113;-59
2022/09/12 11:14:56;;;;;;;8.15;2.45;;;24.00;99.90;;;;;;5037784;28;20094;-60
2022/09/12 11:17:23;;;;;;;10.90;2.55;;;24.10;99.90;;;;;;5042026;28;20089;-59
2022/09/12 11:20:24;;;;;;;6.53;2.05;;;24.20;99.90;;;;;;5042399;28;20077;-60
2022/09/12 11:23:03;;;;;;;8.25;2.92;;;24.30;99.90;;;;;;5004668;28;20054;-59
2022/09/12 11:25:50;;;;;;;4.60;2.08;;;24.40;99.90;;;;;;5039247;28;20122;-59
2022/09/12 11:28:32;;;;;;;6.00;2.78;;;24.40;99.90;;;;;;5022876;28;20037;-61
2022/09/12 11:31:20;;;;;;;3.10;1.50;;;24.40;99.90;;;;;;5022167;28;20038;-60
2022/09/12 11:33:51;;;;;;;3.65;1.40;;;24.40;99.90;;;;;;5031006;28;20034;-59
2022/09/12 11:36:40;;;;;;;5.20;1.65;;;24.40;99.90;;;;;;5022879;28;20061;-59
2022/09/12 11:39:26;;;;;;;7.80;1.50;;;24.50;99.90;;;;;;5039209;28;20036;-59
2022/09/12 11:41:58;;;;;;;5.53;1.17;;;24.60;99.90;;;;;;5038632;28;20101;-60
2022/09/12 11:44:33;;;;;;;5.47;1.00;;;24.70;99.90;;;;;;5022151;28;20045;-61
2022/09/12 11:47:09;;;;;;;3.17;1.48;;;24.80;99.90;;;;;;5038291;28;20044;-60
2022/09/12 11:49:39;;;;;;;3.40;1.20;;;24.80;99.90;;;;;;5022529;28;20034;-60
2022/09/12 11:52:16;;;;;;;4.43;1.20;;;24.90;99.90;;;;;;5037829;28;20034;-60
2022/09/12 11:54:49;;;;;;;3.85;1.45;;;25.00;99.90;;;;;;5038669;28;20056;-60
2022/09/12 11:57:22;;;;;;;5.03;1.77;;;25.10;99.90;;;;;;5038707;28;20106;-60
2022/09/12 11:59:52;;;;;;;2.92;1.23;;;25.00;99.90;;;;;;5037703;28;20046;-60
2022/09/12 12:02:46;;;;;;;4.07;1.00;;;25.20;99.90;;;;;;5037758;28;20041;-59
2022/09/12 12:05:19;;;;;;;2.42;0.90;;;25.20;99.90;;;;;;5037999;28;20053;-60
2022/09/12 12:07:56;;;;;;;5.85;2.00;;;25.10;99.90;;;;;;5038061;28;20030;-60
2022/09/12 12:10:23;;;;;;;3.63;1.25;;;25.00;99.90;;;;;;5037387;28;20056;-59
2022/09/12 12:12:51;;;;;;;6.45;1.10;;;24.90;99.90;;;;;;5037918;28;20069;-59
2022/09/12 12:15:18;;;;;;;4.47;0.98;;;24.90;99.90;;;;;;5036619;28;20034;-59
2022/09/12 12:17:45;;;;;;;4.05;1.27;;;24.80;99.90;;;;;;5037661;28;20093;-59
2022/09/12 12:20:16;;;;;;;2.42;1.00;;;24.80;99.90;;;;;;5017637;28;20042;-60
2022/09/12 12:22:53;;;;;;;4.60;1.80;;;24.90;99.90;;;;;;5017362;28;20056;-59
2022/09/12 12:25:23;;;;;;;2.80;1.23;;;24.90;99.90;;;;;;5037810;28;20161;-59
2022/09/12 12:27:58;;;;;;;3.50;1.38;;;24.90;99.90;;;;;;5037903;28;20049;-59
2022/09/12 12:30:37;;;;;;;5.82;1.50;;;24.90;99.90;;;;;;5037312;28;20026;-60
2022/09/12 12:33:11;;;;;;;3.42;1.42;;;25.00;99.90;;;;;;5037374;28;20025;-60
2022/09/12 12:35:40;;;;;;;3.58;1.40;;;25.00;99.90;;;;;;5036579;28;20152;-59
2022/09/12 12:38:30;;;;;;;1.60;0.77;;;25.00;99.90;;;;;;5037196;28;20370;-59
2022/09/12 12:41:16;;;;;;;3.05;1.30;;;24.90;99.00;;;;;;5027986;28;20069;-60
2022/09/12 12:43:46;;;;;;;4.07;1.40;;;25.00;99.40;;;;;;5037233;28;20041;-60
2022/09/12 12:46:22;;;;;;;8.60;2.33;;;25.00;98.20;;;;;;5036796;28;20053;-60
2022/09/12 12:48:53;;;;;;;2.35;1.02;;;25.20;98.10;;;;;;5036953;28;20109;-60
2022/09/12 12:51:52;;;;;;;3.70;1.45;;;25.40;97.60;;;;;;5036859;28;20050;-60
2022/09/12 12:54:29;;;;;;;2.83;1.13;;;25.50;95.20;;;;;;5037382;28;20138;-61
2022/09/12 12:57:31;;;;;;;3.53;1.20;;;25.60;93.70;;;;;;5037713;28;20045;-60
2022/09/12 12:59:58;;;;;;;1.70;1.02;;;25.80;94.10;;;;;;5033787;28;20065;-60
2022/09/12 13:02:39;;;;;;;2.60;0.80;;;25.90;97.50;;;;;;5037487;28;20042;-61
2022/09/12 13:05:17;;;;;;;3.03;1.10;;;26.00;96.00;;;;;;5036635;28;20030;-60
2022/09/12 13:07:43;;;;;;;3.80;0.90;;;26.00;94.40;;;;;;5020348;28;20048;-60
2022/09/12 13:10:28;;;;;;;3.53;0.93;;;26.00;95.20;;;;;;5036819;28;20065;-60